createdAt,value
2023-05-19T00:00:10.787Z,8.50
2023-05-19T00:02:40.795Z,8.40
2023-05-19T00:05:08.108Z,8.40
2023-05-19T00:07:38.701Z,8.40
2023-05-19T00:10:06.709Z,8.30
2023-05-19T00:12:33.641Z,8.20
2023-05-19T00:15:00.545Z,8.20
2023-05-19T00:17:29.612Z,8.20
2023-05-19T00:19:58.679Z,8.10
2023-05-19T00:22:25.888Z,8.10
2023-05-19T00:24:52.582Z,8.00
2023-05-19T00:27:21.520Z,8.00
2023-05-19T00:29:48.242Z,8.00
2023-05-19T00:32:17.146Z,8.00
2023-05-19T00:34:47.782Z,8.00
2023-05-19T00:37:14.623Z,8.00
2023-05-19T00:39:41.396Z,8.00
2023-05-19T00:42:08.468Z,8.00
2023-05-19T00:44:40.017Z,7.90
2023-05-19T00:47:07.366Z,7.90
2023-05-19T00:49:34.778Z,7.90
2023-05-19T00:52:04.258Z,7.80
2023-05-19T00:54:33.792Z,7.80
2023-05-19T00:57:00.911Z,7.80
2023-05-19T00:59:30.172Z,7.80
2023-05-19T01:01:57.445Z,7.70
2023-05-19T01:04:26.563Z,7.70
2023-05-19T01:06:54.977Z,7.70
2023-05-19T01:09:23.081Z,7.60
2023-05-19T01:11:53.350Z,7.60
2023-05-19T01:14:22.915Z,7.60
2023-05-19T01:17:16.698Z,7.60
2023-05-19T01:20:14.653Z,7.60
2023-05-19T01:23:09.085Z,7.50
2023-05-19T01:26:03.252Z,7.40
2023-05-19T01:28:52.016Z,7.40
2023-05-19T01:31:24.781Z,7.40
2023-05-19T01:33:53.865Z,7.30
2023-05-19T01:36:25.920Z,7.30
2023-05-19T01:38:58.583Z,7.30
2023-05-19T01:41:26.310Z,7.30
2023-05-19T01:43:54.221Z,7.20
2023-05-19T01:46:22.105Z,7.20
2023-05-19T01:48:49.106Z,7.20
2023-05-19T01:51:18.311Z,7.10
2023-05-19T01:53:45.008Z,7.10
2023-05-19T01:56:17.208Z,7.00
2023-05-19T01:58:53.070Z,7.00
2023-05-19T02:01:44.803Z,7.00
2023-05-19T02:04:18.486Z,6.90
2023-05-19T02:07:03.274Z,6.90
2023-05-19T02:10:17.487Z,6.90
2023-05-19T02:12:48.105Z,6.90
2023-05-19T02:15:17.363Z,6.80
2023-05-19T02:17:54.363Z,6.90
2023-05-19T02:20:23.885Z,6.80
2023-05-19T02:22:50.572Z,6.90
2023-05-19T02:25:19.687Z,6.80
2023-05-19T02:27:49.086Z,6.80
2023-05-19T02:30:18.161Z,6.80
2023-05-19T02:32:49.689Z,6.80
2023-05-19T02:35:18.742Z,6.70
2023-05-19T02:37:45.985Z,6.70
2023-05-19T02:40:12.702Z,6.70
2023-05-19T02:42:41.583Z,6.60
2023-05-19T02:45:11.090Z,6.60
2023-05-19T02:47:41.472Z,6.60
2023-05-19T02:50:08.967Z,6.50
2023-05-19T02:52:38.047Z,6.50
2023-05-19T02:55:05.095Z,6.40
2023-05-19T02:57:34.582Z,6.40
2023-05-19T03:00:01.633Z,6.40
2023-05-19T03:02:30.715Z,6.40
2023-05-19T03:05:03.839Z,6.30
2023-05-19T03:07:33.685Z,6.30
2023-05-19T03:10:06.570Z,6.20
2023-05-19T03:12:33.803Z,6.20
2023-05-19T03:15:01.011Z,6.20
2023-05-19T03:17:33.617Z,6.20
2023-05-19T03:20:01.466Z,6.10
2023-05-19T03:22:30.914Z,6.10
2023-05-19T03:24:58.411Z,6.10
2023-05-19T03:27:27.408Z,6.10
2023-05-19T03:29:56.326Z,6.10
2023-05-19T03:32:25.605Z,6.10
2023-05-19T03:34:52.357Z,6.10
2023-05-19T03:37:19.064Z,6.10
2023-05-19T03:39:47.964Z,6.00
2023-05-19T03:42:14.764Z,6.00
2023-05-19T03:44:41.508Z,6.00
2023-05-19T03:47:08.283Z,6.00
2023-05-19T03:49:34.977Z,6.00
2023-05-19T03:52:03.262Z,6.10
2023-05-19T03:54:29.979Z,6.00
2023-05-19T03:56:59.129Z,6.00
2023-05-19T03:59:25.828Z,6.00
2023-05-19T04:01:54.858Z,6.00
2023-05-19T04:04:21.981Z,6.10
2023-05-19T04:06:48.808Z,6.10
2023-05-19T04:09:16.498Z,6.10
2023-05-19T04:11:43.343Z,6.10
2023-05-19T04:14:12.387Z,6.10
2023-05-19T04:16:39.072Z,6.20
2023-05-19T04:19:08.050Z,6.20
2023-05-19T04:21:34.949Z,6.30
2023-05-19T04:24:01.690Z,6.40
2023-05-19T04:26:30.891Z,6.40
2023-05-19T04:28:57.665Z,6.50
2023-05-19T04:31:24.549Z,6.60
2023-05-19T04:33:53.398Z,6.80
2023-05-19T04:36:22.633Z,6.80
2023-05-19T04:38:54.742Z,6.90
2023-05-19T04:41:23.832Z,7.00
2023-05-19T04:43:50.501Z,7.10
2023-05-19T04:46:17.263Z,7.20
2023-05-19T04:48:48.581Z,7.30
2023-05-19T04:51:15.266Z,7.40
2023-05-19T04:53:42.674Z,7.50
2023-05-19T04:56:15.058Z,7.60
2023-05-19T04:58:44.566Z,7.80
2023-05-19T05:01:13.797Z,7.90
2023-05-19T05:03:40.793Z,8.00
2023-05-19T05:06:07.651Z,8.10
2023-05-19T05:08:40.007Z,8.10
2023-05-19T05:11:09.732Z,8.20
2023-05-19T05:13:36.668Z,8.30
2023-05-19T05:16:09.003Z,8.40
2023-05-19T05:18:38.592Z,8.50
2023-05-19T05:21:06.796Z,8.60
2023-05-19T05:23:33.770Z,8.70
2023-05-19T05:26:06.483Z,8.70
2023-05-19T05:28:35.640Z,8.80
2023-05-19T05:31:04.724Z,9.00
2023-05-19T05:33:31.974Z,9.00
2023-05-19T05:36:03.731Z,9.10
2023-05-19T05:38:30.903Z,9.20
2023-05-19T05:40:57.616Z,9.20
2023-05-19T05:43:24.362Z,9.30
2023-05-19T05:45:51.077Z,9.40
2023-05-19T05:48:23.856Z,9.40
2023-05-19T05:50:50.911Z,9.50
2023-05-19T05:53:21.829Z,9.60
2023-05-19T05:55:49.158Z,9.70
2023-05-19T05:58:18.066Z,9.90
2023-05-19T06:00:45.235Z,9.90
2023-05-19T06:03:12.197Z,10.00
2023-05-19T06:05:41.534Z,10.10
2023-05-19T06:08:10.436Z,10.20
2023-05-19T06:10:41.660Z,10.20
2023-05-19T06:13:08.389Z,10.30
2023-05-19T06:15:37.721Z,10.40
2023-05-19T06:18:09.072Z,10.50
2023-05-19T06:20:36.190Z,10.50
2023-05-19T06:23:03.158Z,10.60
2023-05-19T06:25:30.509Z,10.70
2023-05-19T06:28:01.922Z,10.70
2023-05-19T06:30:33.737Z,10.80
2023-05-19T06:33:03.704Z,10.80
2023-05-19T06:35:33.227Z,10.90
2023-05-19T06:37:59.928Z,11.00
2023-05-19T06:40:26.694Z,11.00
2023-05-19T06:42:55.579Z,11.10
2023-05-19T06:45:22.533Z,11.20
2023-05-19T06:47:51.910Z,11.30
2023-05-19T06:50:18.785Z,11.30
2023-05-19T06:52:47.699Z,11.40
2023-05-19T06:55:14.465Z,11.50
2023-05-19T06:57:43.723Z,11.60
2023-05-19T07:00:16.763Z,11.60
2023-05-19T07:02:46.959Z,11.70
2023-05-19T07:05:14.135Z,11.80
2023-05-19T07:07:41.727Z,11.80
2023-05-19T07:10:11.540Z,11.90
2023-05-19T07:12:40.498Z,12.00
2023-05-19T07:15:07.563Z,12.00
2023-05-19T07:17:34.317Z,12.10
2023-05-19T07:20:01.669Z,12.20
2023-05-19T07:22:28.432Z,12.20
2023-05-19T07:24:57.555Z,12.30
2023-05-19T07:27:24.234Z,12.40
2023-05-19T07:29:50.961Z,12.40
2023-05-19T07:32:17.757Z,12.50
2023-05-19T07:34:46.812Z,12.60
2023-05-19T07:37:13.584Z,12.60
2023-05-19T07:39:40.378Z,12.70
2023-05-19T07:42:09.282Z,12.70
2023-05-19T07:44:36.168Z,12.80
2023-05-19T07:47:02.912Z,12.90
2023-05-19T07:49:29.679Z,13.00
2023-05-19T07:52:01.156Z,13.10
2023-05-19T07:54:27.827Z,13.10
2023-05-19T07:56:54.621Z,13.20
2023-05-19T07:59:21.387Z,13.20
2023-05-19T08:01:48.146Z,13.30
2023-05-19T08:04:14.908Z,13.40
2023-05-19T08:06:44.597Z,13.60
2023-05-19T08:09:11.955Z,13.80
2023-05-19T08:11:38.946Z,13.90
2023-05-19T08:14:07.953Z,14.00
2023-05-19T08:16:37.036Z,14.10
2023-05-19T08:19:05.484Z,14.10
2023-05-19T08:21:34.623Z,14.20
2023-05-19T08:24:02.413Z,14.30
2023-05-19T08:26:29.353Z,14.30
2023-05-19T08:28:56.224Z,14.30
2023-05-19T08:31:27.712Z,14.30
2023-05-19T08:33:57.023Z,14.50
2023-05-19T08:36:26.268Z,14.50
2023-05-19T08:38:52.971Z,14.50
2023-05-19T08:41:24.445Z,14.50
2023-05-19T08:43:51.206Z,14.60
2023-05-19T08:46:20.535Z,14.70
2023-05-19T08:48:48.513Z,14.80
2023-05-19T08:51:27.544Z,14.80
2023-05-19T08:54:03.417Z,14.90
2023-05-19T08:56:33.577Z,15.10
2023-05-19T08:59:04.087Z,15.20
2023-05-19T09:01:33.524Z,15.30
2023-05-19T09:04:03.239Z,15.30
2023-05-19T09:06:32.417Z,15.30
2023-05-19T09:08:59.140Z,15.40
2023-05-19T09:11:26.073Z,15.40
2023-05-19T09:13:52.926Z,15.50
2023-05-19T09:16:20.011Z,15.70
2023-05-19T09:19:04.344Z,15.70
2023-05-19T09:21:31.981Z,15.80
2023-05-19T09:24:07.885Z,15.80
2023-05-19T09:26:42.392Z,15.90
2023-05-19T09:29:12.973Z,16.10
2023-05-19T09:32:00.996Z,16.20
2023-05-19T09:34:30.161Z,16.30
2023-05-19T09:36:59.749Z,16.40
2023-05-19T09:39:26.735Z,16.60
2023-05-19T09:41:55.088Z,16.70
2023-05-19T09:44:31.214Z,16.80
2023-05-19T09:46:58.665Z,17.00
2023-05-19T09:49:30.164Z,17.20
2023-05-19T09:51:57.890Z,17.40
2023-05-19T09:54:25.742Z,17.50
2023-05-19T09:56:58.719Z,17.70
2023-05-19T09:59:32.964Z,17.90
2023-05-19T10:02:02.505Z,18.30
2023-05-19T10:04:32.474Z,18.60
2023-05-19T10:07:00.095Z,19.00
2023-05-19T10:09:30.920Z,19.40
2023-05-19T10:11:59.059Z,19.60
2023-05-19T10:14:27.956Z,19.70
2023-05-19T10:17:01.429Z,19.80
2023-05-19T10:19:29.112Z,19.70
2023-05-19T10:21:56.480Z,19.70
2023-05-19T10:24:23.218Z,19.60
2023-05-19T10:27:07.510Z,19.50
2023-05-19T10:29:41.678Z,19.50
2023-05-19T10:32:20.309Z,19.60
2023-05-19T10:35:09.274Z,19.80
2023-05-19T10:38:08.517Z,19.80
2023-05-19T10:40:51.716Z,19.90
2023-05-19T10:43:48.704Z,20.00
2023-05-19T10:46:15.790Z,20.10
2023-05-19T10:48:48.558Z,20.20
2023-05-19T10:51:15.770Z,20.40
2023-05-19T10:53:50.154Z,20.60
2023-05-19T10:56:30.071Z,20.60
2023-05-19T10:59:01.671Z,20.70
2023-05-19T11:01:33.746Z,20.80
2023-05-19T11:04:15.941Z,21.10
2023-05-19T11:06:51.620Z,21.50
2023-05-19T11:09:22.559Z,21.50
2023-05-19T11:11:56.650Z,21.70
2023-05-19T11:14:29.068Z,21.80
2023-05-19T11:16:59.904Z,22.00
2023-05-19T11:19:36.972Z,22.30
2023-05-19T11:22:13.302Z,22.60
2023-05-19T11:24:52.163Z,22.90
2023-05-19T11:27:21.859Z,23.60
2023-05-19T11:29:52.161Z,24.30
2023-05-19T11:32:28.022Z,24.80
2023-05-19T11:34:58.262Z,25.00
2023-05-19T11:37:25.529Z,25.00
2023-05-19T11:39:54.891Z,25.20
2023-05-19T11:42:23.760Z,26.10
2023-05-19T11:44:50.768Z,27.20
2023-05-19T11:47:17.526Z,28.30
2023-05-19T11:49:45.951Z,29.10
2023-05-19T11:52:13.155Z,29.80
2023-05-19T11:54:42.436Z,30.80
2023-05-19T11:57:12.128Z,30.50
2023-05-19T11:59:45.543Z,30.10
2023-05-19T12:02:19.629Z,30.60
2023-05-19T12:04:52.586Z,31.60
2023-05-19T12:07:22.917Z,32.30
2023-05-19T12:09:52.854Z,32.50
2023-05-19T12:12:21.946Z,32.80
2023-05-19T12:14:53.062Z,33.30
2023-05-19T12:17:21.154Z,33.80
2023-05-19T12:19:49.701Z,33.20
2023-05-19T12:22:19.866Z,32.90
2023-05-19T12:24:47.293Z,33.50
2023-05-19T12:27:26.263Z,34.10
2023-05-19T12:29:57.236Z,35.20
2023-05-19T12:32:29.039Z,36.20
2023-05-19T12:34:56.565Z,36.80
2023-05-19T12:37:27.578Z,37.30
2023-05-19T12:39:56.157Z,37.40
2023-05-19T12:42:30.855Z,37.90
2023-05-19T12:45:00.902Z,38.20
2023-05-19T12:47:34.739Z,38.10
2023-05-19T12:50:03.844Z,37.90
2023-05-19T12:52:35.469Z,38.10
2023-05-19T12:55:07.761Z,38.50
2023-05-19T12:57:36.055Z,37.30
2023-05-19T13:00:21.611Z,35.60
2023-05-19T13:03:16.004Z,34.80
2023-05-19T13:05:45.617Z,33.90
2023-05-19T13:08:22.016Z,34.50
2023-05-19T13:10:51.499Z,35.70
2023-05-19T13:13:18.596Z,37.20
2023-05-19T13:15:49.392Z,38.60
2023-05-19T13:18:19.080Z,39.30
2023-05-19T13:20:52.968Z,39.80
2023-05-19T13:23:21.807Z,40.50
2023-05-19T13:25:52.740Z,40.00
2023-05-19T13:28:19.467Z,39.50
2023-05-19T13:30:46.231Z,39.30
2023-05-19T13:33:13.007Z,39.90
2023-05-19T13:35:42.507Z,39.40
2023-05-19T13:38:12.141Z,37.50
2023-05-19T13:40:41.475Z,35.40
2023-05-19T13:43:10.436Z,35.50
2023-05-19T13:45:41.182Z,36.30
2023-05-19T13:48:12.583Z,37.80
2023-05-19T13:50:43.702Z,39.10
2023-05-19T13:53:11.558Z,39.90
2023-05-19T13:55:38.311Z,40.60
2023-05-19T13:58:07.710Z,40.90
2023-05-19T14:00:35.788Z,39.90
2023-05-19T14:03:05.831Z,38.30
2023-05-19T14:05:35.533Z,38.30
2023-05-19T14:08:03.630Z,38.30
2023-05-19T14:10:32.730Z,38.60
2023-05-19T14:15:29.673Z,40.20
2023-05-19T14:17:56.589Z,41.00
2023-05-19T14:20:23.343Z,41.80
2023-05-19T14:22:50.112Z,41.90
2023-05-19T14:25:19.256Z,41.30
2023-05-19T14:27:45.953Z,40.00
2023-05-19T14:30:13.032Z,37.50
2023-05-19T14:32:41.978Z,36.50
2023-05-19T14:35:08.949Z,37.60
2023-05-19T14:37:35.738Z,38.30
2023-05-19T14:40:07.791Z,38.90
2023-05-19T14:42:36.716Z,39.40
2023-05-19T14:45:03.677Z,38.00
2023-05-19T14:47:30.524Z,35.80
2023-05-19T14:49:57.295Z,34.40
2023-05-19T14:52:24.293Z,35.50
2023-05-19T14:54:56.054Z,37.40
2023-05-19T14:57:27.451Z,39.00
2023-05-19T14:59:58.780Z,40.10
2023-05-19T15:02:27.426Z,41.20
2023-05-19T15:04:55.310Z,41.90
2023-05-19T15:07:22.278Z,42.40
2023-05-19T15:09:51.428Z,42.30
2023-05-19T15:12:20.495Z,42.60
2023-05-19T15:14:49.326Z,42.80
2023-05-19T15:17:18.329Z,42.30
2023-05-19T15:19:45.229Z,42.60
2023-05-19T15:22:14.085Z,42.00
2023-05-19T15:24:41.210Z,40.60
2023-05-19T15:27:13.177Z,39.70
2023-05-19T15:29:42.200Z,38.30
2023-05-19T15:32:09.082Z,35.40
2023-05-19T15:34:36.064Z,34.00
2023-05-19T15:37:02.766Z,33.70
2023-05-19T15:39:35.973Z,33.40
2023-05-19T15:42:05.401Z,33.00
2023-05-19T15:44:36.336Z,31.90
2023-05-19T15:47:05.387Z,30.70
2023-05-19T15:49:36.857Z,29.70
2023-05-19T15:52:04.041Z,28.80
2023-05-19T15:54:31.810Z,29.20
2023-05-19T15:56:58.496Z,31.50
2023-05-19T15:59:25.219Z,33.50
2023-05-19T16:01:54.429Z,34.60
2023-05-19T16:04:23.417Z,35.10
2023-05-19T16:06:55.133Z,35.40
2023-05-19T16:09:24.107Z,35.60
2023-05-19T16:11:53.255Z,34.70
2023-05-19T16:14:19.915Z,33.60
2023-05-19T16:16:48.905Z,32.30
2023-05-19T16:19:15.766Z,30.70
2023-05-19T16:21:42.506Z,29.80
2023-05-19T16:24:09.210Z,29.00
2023-05-19T16:26:36.000Z,28.60
2023-05-19T16:29:02.712Z,28.00
2023-05-19T16:31:29.458Z,27.10
2023-05-19T16:33:56.257Z,26.60
2023-05-19T16:36:23.039Z,26.30
2023-05-19T16:38:53.338Z,26.00
2023-05-19T16:41:24.409Z,26.00
2023-05-19T16:43:53.379Z,26.10
2023-05-19T16:46:22.541Z,26.00
2023-05-19T16:48:51.707Z,25.90
2023-05-19T16:51:18.403Z,25.80
2023-05-19T16:53:47.524Z,25.70
2023-05-19T16:56:16.411Z,25.70
2023-05-19T16:58:43.077Z,26.00
2023-05-19T17:01:12.350Z,26.90
2023-05-19T17:03:39.122Z,27.40
2023-05-19T17:06:06.210Z,27.30
2023-05-19T17:08:32.994Z,26.90
2023-05-19T17:10:59.652Z,26.80
2023-05-19T17:13:28.236Z,26.90
2023-05-19T17:15:55.023Z,27.70
2023-05-19T17:18:21.726Z,28.80
2023-05-19T17:20:48.414Z,30.00
2023-05-19T17:23:17.926Z,31.20
2023-05-19T17:25:44.745Z,31.90
2023-05-19T17:28:13.912Z,32.90
2023-05-19T17:30:45.358Z,33.30
2023-05-19T17:33:14.651Z,33.90
2023-05-19T17:35:43.481Z,34.00
2023-05-19T17:38:10.188Z,33.60
2023-05-19T17:40:37.045Z,33.40
2023-05-19T17:43:08.104Z,33.40
2023-05-19T17:45:34.955Z,33.30
2023-05-19T17:48:01.838Z,33.30
2023-05-19T17:50:31.145Z,33.40
2023-05-19T17:53:00.511Z,33.10
2023-05-19T17:55:29.974Z,32.90
2023-05-19T17:57:57.518Z,32.50
2023-05-19T18:00:25.226Z,31.80
2023-05-19T18:02:52.596Z,30.10
2023-05-19T18:05:22.712Z,28.10
2023-05-19T18:07:53.584Z,26.50
2023-05-19T18:10:21.060Z,24.90
2023-05-19T18:12:50.195Z,23.80
2023-05-19T18:15:21.597Z,23.00
2023-05-19T18:17:48.466Z,22.40
2023-05-19T18:20:15.240Z,21.90
2023-05-19T18:22:41.927Z,21.40
2023-05-19T18:25:09.204Z,21.00
2023-05-19T18:27:35.959Z,20.60
2023-05-19T18:30:05.046Z,20.40
2023-05-19T18:32:33.664Z,20.20
2023-05-19T18:35:00.432Z,20.00
2023-05-19T18:37:29.702Z,19.70
2023-05-19T18:39:59.998Z,19.50
2023-05-19T18:42:28.994Z,19.30
2023-05-19T18:44:55.758Z,19.20
2023-05-19T18:47:24.819Z,18.90
2023-05-19T18:49:51.511Z,18.80
2023-05-19T18:52:21.677Z,18.60
2023-05-19T18:54:48.736Z,18.50
2023-05-19T18:57:15.577Z,18.30
2023-05-19T18:59:44.412Z,18.20
2023-05-19T19:02:11.305Z,18.10
2023-05-19T19:04:38.053Z,17.90
2023-05-19T19:07:05.726Z,17.80
2023-05-19T19:09:32.403Z,17.70
2023-05-19T19:11:59.182Z,17.50
2023-05-19T19:14:25.975Z,17.40
2023-05-19T19:16:57.737Z,17.30
2023-05-19T19:19:24.676Z,17.20
2023-05-19T19:21:51.398Z,17.00
2023-05-19T19:24:18.134Z,16.90
2023-05-19T19:26:44.832Z,16.80
2023-05-19T19:29:11.950Z,16.60
2023-05-19T19:31:40.953Z,16.60
2023-05-19T19:34:09.368Z,16.50
2023-05-19T19:36:38.780Z,16.40
2023-05-19T19:39:05.493Z,16.30
2023-05-19T19:41:34.644Z,16.20
2023-05-19T19:44:01.388Z,16.10
2023-05-19T19:46:28.283Z,16.00
2023-05-19T19:48:58.073Z,15.90
2023-05-19T19:51:24.806Z,15.80
2023-05-19T19:53:54.021Z,15.80
2023-05-19T19:56:24.696Z,15.80
2023-05-19T19:58:51.532Z,15.70
2023-05-19T20:01:20.472Z,15.70
2023-05-19T20:03:48.012Z,15.60
2023-05-19T20:06:15.251Z,15.60
2023-05-19T20:08:44.351Z,15.50
2023-05-19T20:11:11.056Z,15.40
2023-05-19T20:13:37.812Z,15.30
2023-05-19T20:16:05.019Z,15.30
2023-05-19T20:18:36.642Z,15.20
2023-05-19T20:21:03.462Z,15.10
2023-05-19T20:23:30.226Z,15.10
2023-05-19T20:26:12.042Z,15.10
2023-05-19T20:28:40.409Z,15.00
2023-05-19T20:31:09.634Z,14.90
2023-05-19T20:33:36.312Z,14.80
2023-05-19T20:36:06.793Z,14.80
2023-05-19T20:38:33.540Z,14.70
2023-05-19T20:41:00.300Z,14.60
2023-05-19T20:43:29.482Z,14.50
2023-05-19T20:46:03.623Z,14.50
2023-05-19T20:48:30.533Z,14.40
2023-05-19T20:50:57.272Z,14.30
2023-05-19T20:53:24.363Z,14.30
2023-05-19T20:55:53.606Z,14.20
2023-05-19T20:58:26.427Z,14.10
2023-05-19T21:00:57.420Z,14.00
2023-05-19T21:03:26.742Z,14.00
2023-05-19T21:05:55.888Z,13.90
2023-05-19T21:08:25.424Z,13.90
2023-05-19T21:10:52.625Z,13.80
2023-05-19T21:13:19.312Z,13.70
2023-05-19T21:15:46.006Z,13.60
2023-05-19T21:18:15.076Z,13.60
2023-05-19T21:20:44.001Z,13.50
2023-05-19T21:23:10.850Z,13.50
2023-05-19T21:25:37.740Z,13.40
2023-05-19T21:28:04.566Z,13.30
2023-05-19T21:30:31.381Z,13.30
2023-05-19T21:32:58.566Z,13.20
2023-05-19T21:35:27.915Z,13.20
2023-05-19T21:37:57.320Z,13.10
2023-05-19T21:40:26.203Z,13.10
2023-05-19T21:42:55.176Z,13.00
2023-05-19T21:45:24.255Z,13.00
2023-05-19T21:47:53.120Z,12.90
2023-05-19T21:50:19.992Z,12.80
2023-05-19T21:52:49.032Z,12.80
2023-05-19T21:55:16.027Z,12.70
2023-05-19T21:57:42.780Z,12.70
2023-05-19T22:00:13.180Z,12.60
2023-05-19T22:02:40.656Z,12.60
2023-05-19T22:05:07.822Z,12.60
2023-05-19T22:07:37.036Z,12.60
2023-05-19T22:10:04.316Z,12.50
2023-05-19T22:12:32.469Z,12.50
2023-05-19T22:15:00.480Z,12.50
2023-05-19T22:17:27.460Z,12.40
2023-05-19T22:19:54.222Z,12.40
2023-05-19T22:22:21.201Z,12.30
2023-05-19T22:24:50.452Z,12.30
2023-05-19T22:27:17.108Z,12.20
2023-05-19T22:29:43.944Z,12.20
2023-05-19T22:32:12.084Z,12.10
2023-05-19T22:34:41.588Z,12.10
2023-05-19T22:37:08.338Z,12.10
2023-05-19T22:39:35.519Z,12.00
2023-05-19T22:42:02.649Z,12.00
2023-05-19T22:44:29.353Z,11.90
2023-05-19T22:46:56.197Z,11.90
2023-05-19T22:49:22.931Z,11.90
2023-05-19T22:51:50.459Z,11.90
2023-05-19T22:54:21.861Z,11.80
2023-05-19T22:56:51.047Z,11.70
2023-05-19T22:59:21.492Z,11.70
2023-05-19T23:01:48.376Z,11.60
2023-05-19T23:04:17.648Z,11.60
2023-05-19T23:06:47.185Z,11.60
2023-05-19T23:09:15.231Z,11.60
2023-05-19T23:11:44.433Z,11.50
2023-05-19T23:14:11.254Z,11.50
2023-05-19T23:16:40.259Z,11.40
2023-05-19T23:19:09.910Z,11.40
2023-05-19T23:21:38.818Z,11.30
2023-05-19T23:24:06.410Z,11.30
2023-05-19T23:26:33.282Z,11.20
2023-05-19T23:29:02.123Z,11.20
2023-05-19T23:31:28.912Z,11.20
2023-05-19T23:33:55.824Z,11.10
2023-05-19T23:36:25.045Z,11.10
2023-05-19T23:38:54.077Z,11.10
2023-05-19T23:41:21.352Z,11.00
2023-05-19T23:43:53.099Z,11.00
2023-05-19T23:46:20.019Z,11.00
2023-05-19T23:48:47.441Z,10.90
2023-05-19T23:51:14.240Z,10.90
2023-05-19T23:53:41.062Z,10.90
2023-05-19T23:56:08.050Z,10.80
2023-05-19T23:58:37.091Z,10.80
